createdAt,value
2017-10-23T00:01:43.720Z,27.50
2017-10-23T00:04:14.889Z,27.60
2017-10-23T00:06:45.466Z,27.50
2017-10-23T00:09:15.928Z,27.60
2017-10-23T00:11:46.405Z,27.70
2017-10-23T00:14:16.774Z,27.70
2017-10-23T00:16:48.034Z,27.80
2017-10-23T00:19:18.689Z,27.80
2017-10-23T00:21:49.133Z,27.90
2017-10-23T00:24:19.548Z,28.00
2017-10-23T00:26:50.002Z,28.10
2017-10-23T00:29:20.707Z,28.20
2017-10-23T00:31:51.880Z,28.30
2017-10-23T00:34:22.408Z,28.40
2017-10-23T00:36:53.134Z,28.50
2017-10-23T00:39:23.570Z,28.60
2017-10-23T00:41:54.046Z,28.70
2017-10-23T00:44:24.481Z,28.80
2017-10-23T00:46:54.939Z,28.90
2017-10-23T00:49:25.736Z,29.00
2017-10-23T00:51:56.227Z,29.10
2017-10-23T00:54:26.718Z,29.20
2017-10-23T00:56:57.309Z,29.20
2017-10-23T00:59:28.529Z,29.50
2017-10-23T01:01:59.239Z,29.50
2017-10-23T01:04:29.737Z,29.60
2017-10-23T01:07:00.638Z,29.60
2017-10-23T01:09:31.969Z,29.60
2017-10-23T01:12:02.560Z,29.50
2017-10-23T01:14:33.104Z,29.50
2017-10-23T01:17:03.562Z,29.60
2017-10-23T01:19:34.422Z,29.60
2017-10-23T01:22:05.685Z,29.60
2017-10-23T01:24:36.080Z,29.60
2017-10-23T01:27:07.317Z,29.80
2017-10-23T01:29:37.749Z,29.80
2017-10-23T01:32:08.724Z,29.90
2017-10-23T01:34:39.117Z,29.90
2017-10-23T01:37:10.566Z,29.90
2017-10-23T01:39:41.813Z,29.90
2017-10-23T01:42:13.054Z,30.00
2017-10-23T01:44:44.252Z,30.00
2017-10-23T01:47:14.731Z,30.00
2017-10-23T01:49:45.501Z,30.00
2017-10-23T01:52:16.067Z,30.10
2017-10-23T01:54:46.592Z,30.10
2017-10-23T01:57:17.045Z,30.00
2017-10-23T01:59:47.502Z,30.00
2017-10-23T02:02:18.423Z,30.00
2017-10-23T02:04:49.702Z,30.30
2017-10-23T02:07:20.608Z,30.30
2017-10-23T02:09:51.817Z,30.40
2017-10-23T02:12:22.262Z,30.40
2017-10-23T02:14:52.735Z,30.40
2017-10-23T02:17:23.196Z,30.40
2017-10-23T02:19:54.105Z,30.40
2017-10-23T02:22:24.550Z,30.50
2017-10-23T02:24:55.194Z,30.50
2017-10-23T02:27:25.631Z,30.50
2017-10-23T02:29:56.055Z,30.60
2017-10-23T02:32:26.536Z,30.70
2017-10-23T02:34:56.949Z,30.70
2017-10-23T02:37:28.684Z,30.80
2017-10-23T02:39:59.890Z,30.80
2017-10-23T02:42:30.332Z,30.70
2017-10-23T02:45:00.822Z,30.90
2017-10-23T02:47:31.289Z,30.90
2017-10-23T02:50:02.065Z,31.00
2017-10-23T02:52:33.261Z,31.30
2017-10-23T02:55:04.930Z,31.40
2017-10-23T02:57:35.387Z,31.40
2017-10-23T03:00:06.587Z,31.40
2017-10-23T03:02:37.032Z,31.40
2017-10-23T03:05:07.516Z,31.20
2017-10-23T03:07:38.537Z,31.10
2017-10-23T03:10:09.784Z,31.00
2017-10-23T03:12:41.045Z,31.00
2017-10-23T03:15:11.485Z,31.00
2017-10-23T03:17:41.917Z,31.10
2017-10-23T03:20:12.839Z,31.10
2017-10-23T03:22:43.498Z,31.00
2017-10-23T03:25:14.215Z,30.90
2017-10-23T03:27:44.732Z,31.00
2017-10-23T03:30:16.081Z,31.10
2017-10-23T03:32:46.509Z,31.30
2017-10-23T03:35:16.930Z,31.30
2017-10-23T03:37:47.620Z,31.40
2017-10-23T03:40:18.072Z,31.60
2017-10-23T03:42:49.262Z,31.60
2017-10-23T03:45:19.679Z,31.60
2017-10-23T03:47:50.129Z,31.50
2017-10-23T03:50:20.892Z,31.40
2017-10-23T03:52:52.097Z,31.20
2017-10-23T03:55:22.647Z,31.20
2017-10-23T03:57:53.124Z,31.30
2017-10-23T04:00:23.551Z,31.30
2017-10-23T04:02:54.015Z,31.40
2017-10-23T04:05:24.471Z,31.40
2017-10-23T04:07:55.928Z,31.20
2017-10-23T04:10:27.117Z,31.10
2017-10-23T04:12:57.857Z,31.10
2017-10-23T04:15:28.291Z,31.00
2017-10-23T04:17:58.797Z,30.90
2017-10-23T04:20:29.507Z,30.90
2017-10-23T04:23:00.257Z,31.10
2017-10-23T04:25:31.111Z,31.20
2017-10-23T04:28:01.600Z,31.30
2017-10-23T04:30:32.761Z,31.60
2017-10-23T04:33:03.173Z,31.60
2017-10-23T04:35:34.375Z,32.00
2017-10-23T04:38:05.087Z,32.00
2017-10-23T04:40:35.523Z,31.90
2017-10-23T04:43:05.981Z,31.90
2017-10-23T04:45:36.389Z,32.00
2017-10-23T04:48:06.912Z,32.10
2017-10-23T04:50:37.355Z,32.20
2017-10-23T04:53:07.777Z,32.30
2017-10-23T04:55:38.750Z,32.30
2017-10-23T04:58:09.995Z,32.00
2017-10-23T05:00:41.259Z,31.90
2017-10-23T05:03:11.779Z,31.90
2017-10-23T05:05:42.166Z,31.90
2017-10-23T05:08:12.989Z,31.80
2017-10-23T05:10:43.439Z,31.70
2017-10-23T05:13:14.364Z,31.90
2017-10-23T05:15:44.812Z,32.00
2017-10-23T05:18:16.288Z,32.20
2017-10-23T05:20:46.721Z,32.20
2017-10-23T05:23:17.178Z,32.20
2017-10-23T05:25:48.724Z,32.00
2017-10-23T05:28:19.273Z,32.00
2017-10-23T05:30:49.728Z,31.90
2017-10-23T05:33:20.987Z,31.80
2017-10-23T05:35:52.264Z,31.70
2017-10-23T05:38:23.124Z,31.70
2017-10-23T05:40:53.540Z,31.60
2017-10-23T05:43:24.378Z,31.70
2017-10-23T05:45:54.832Z,31.80
2017-10-23T05:48:25.344Z,31.90
2017-10-23T05:50:55.855Z,31.90
2017-10-23T05:53:26.411Z,32.00
2017-10-23T05:55:57.310Z,32.10
2017-10-23T05:58:27.828Z,32.10
2017-10-23T06:00:58.242Z,32.10
2017-10-23T06:03:29.470Z,32.10
2017-10-23T06:05:59.900Z,32.20
2017-10-23T06:08:31.142Z,32.30
2017-10-23T06:11:02.381Z,32.40
2017-10-23T06:13:33.228Z,32.30
2017-10-23T06:16:04.562Z,32.30
2017-10-23T06:18:35.037Z,32.30
2017-10-23T06:21:05.788Z,32.40
2017-10-23T06:23:36.525Z,32.50
2017-10-23T06:26:07.244Z,32.50
2017-10-23T06:28:37.759Z,32.60
2017-10-23T06:31:08.513Z,32.60
2017-10-23T06:33:38.992Z,32.60
2017-10-23T06:36:10.220Z,32.60
2017-10-23T06:38:41.043Z,32.60
2017-10-23T06:41:11.537Z,32.60
2017-10-23T06:43:42.029Z,32.70
2017-10-23T06:46:13.225Z,32.90
2017-10-23T06:48:43.678Z,32.90
2017-10-23T06:51:14.109Z,32.90
2017-10-23T06:53:45.333Z,33.00
2017-10-23T06:56:16.064Z,33.00
2017-10-23T06:58:46.760Z,32.90
2017-10-23T07:01:17.274Z,32.80
2017-10-23T07:03:48.506Z,32.70
2017-10-23T07:06:18.991Z,32.70
2017-10-23T07:08:49.431Z,32.70
2017-10-23T07:11:19.829Z,32.70
2017-10-23T07:13:50.713Z,32.60
2017-10-23T07:16:21.201Z,32.50
2017-10-23T07:18:51.691Z,32.30
2017-10-23T07:21:22.890Z,32.00
2017-10-23T07:23:53.333Z,32.00
2017-10-23T07:26:24.145Z,32.00
2017-10-23T07:28:54.572Z,31.90
2017-10-23T07:31:25.303Z,31.90
2017-10-23T07:33:55.795Z,32.00
2017-10-23T07:36:26.281Z,32.00
2017-10-23T07:38:56.766Z,32.00
2017-10-23T07:41:27.234Z,32.00
2017-10-23T07:43:58.104Z,32.00
2017-10-23T07:46:29.324Z,32.10
2017-10-23T07:48:59.763Z,32.10
2017-10-23T07:51:30.200Z,32.10
2017-10-23T07:54:01.483Z,32.10
2017-10-23T07:56:32.274Z,32.10
2017-10-23T07:59:02.748Z,32.20
2017-10-23T08:01:33.649Z,32.30
2017-10-23T08:04:04.867Z,32.30
2017-10-23T08:06:35.410Z,32.30
2017-10-23T08:09:06.072Z,32.40
2017-10-23T08:11:37.273Z,32.40
2017-10-23T08:14:08.113Z,32.30
2017-10-23T08:16:38.593Z,32.30
2017-10-23T08:19:09.140Z,32.30
2017-10-23T08:21:39.611Z,32.30
2017-10-23T08:24:10.057Z,32.30
2017-10-23T08:26:41.677Z,32.30
2017-10-23T08:29:12.157Z,32.30
2017-10-23T08:31:43.007Z,32.40
2017-10-23T08:34:13.496Z,32.40
2017-10-23T08:36:44.701Z,32.40
2017-10-23T08:39:15.161Z,32.40
2017-10-23T08:41:46.346Z,32.30
2017-10-23T08:44:17.201Z,32.30
2017-10-23T08:46:47.599Z,32.20
2017-10-23T08:49:18.003Z,32.20
2017-10-23T08:51:49.245Z,32.10
2017-10-23T08:54:20.397Z,32.10
2017-10-23T08:56:52.222Z,32.10
2017-10-23T08:59:22.895Z,32.10
2017-10-23T09:01:54.432Z,32.10
2017-10-23T09:04:25.967Z,32.10
2017-10-23T09:06:56.592Z,32.10
2017-10-23T09:09:27.237Z,31.90
2017-10-23T09:11:57.693Z,31.90
2017-10-23T09:14:29.415Z,31.70
2017-10-23T09:16:59.785Z,31.70
2017-10-23T09:19:30.399Z,31.70
2017-10-23T09:22:01.654Z,31.60
2017-10-23T09:24:32.770Z,31.60
2017-10-23T09:27:03.581Z,31.60
2017-10-23T09:29:34.004Z,31.50
2017-10-23T09:32:04.858Z,32.30
2017-10-23T09:34:35.348Z,31.40
2017-10-23T09:37:05.913Z,31.40
2017-10-23T09:39:36.390Z,31.30
2017-10-23T09:42:06.792Z,31.20
2017-10-23T09:44:38.380Z,31.20
2017-10-23T09:47:08.809Z,31.10
2017-10-23T09:49:39.249Z,31.10
2017-10-23T09:52:09.733Z,31.10
2017-10-23T09:54:40.933Z,31.10
2017-10-23T09:57:11.468Z,31.10
2017-10-23T09:59:41.866Z,31.10
2017-10-23T10:02:12.757Z,31.00
2017-10-23T10:04:44.521Z,31.00
2017-10-23T10:07:15.702Z,31.00
2017-10-23T10:09:46.197Z,30.90
2017-10-23T10:12:17.402Z,30.90
2017-10-23T10:14:48.115Z,30.90
2017-10-23T10:17:18.581Z,30.80
2017-10-23T10:19:48.988Z,30.80
2017-10-23T10:22:19.345Z,30.80
2017-10-23T10:24:50.632Z,30.70
2017-10-23T10:27:21.098Z,30.70
2017-10-23T10:29:51.546Z,30.60
2017-10-23T10:32:22.461Z,30.60
2017-10-23T10:34:52.885Z,30.50
2017-10-23T10:37:23.429Z,30.40
2017-10-23T10:39:53.941Z,30.30
2017-10-23T10:42:29.363Z,30.30
2017-10-23T10:45:00.298Z,30.20
2017-10-23T10:47:30.712Z,30.10
2017-10-23T10:50:01.399Z,30.10
2017-10-23T10:52:31.829Z,30.10
2017-10-23T10:55:03.040Z,29.90
2017-10-23T10:57:34.212Z,29.90
2017-10-23T11:00:04.676Z,29.90
2017-10-23T11:02:36.237Z,29.80
2017-10-23T11:05:06.749Z,29.80
2017-10-23T11:07:37.973Z,29.80
2017-10-23T11:10:08.395Z,29.80
2017-10-23T11:12:38.797Z,29.70
2017-10-23T11:15:09.336Z,29.80
2017-10-23T11:17:39.802Z,29.70
2017-10-23T11:20:11.397Z,29.60
2017-10-23T11:22:42.038Z,29.60
2017-10-23T11:25:12.533Z,29.60
2017-10-23T11:27:42.981Z,29.70
2017-10-23T11:30:13.473Z,29.70
2017-10-23T11:32:45.190Z,29.60
2017-10-23T11:35:15.722Z,29.70
2017-10-23T11:37:46.219Z,29.60
2017-10-23T11:40:16.698Z,29.60
2017-10-23T11:42:47.822Z,29.50
2017-10-23T11:45:19.443Z,29.40
2017-10-23T11:47:49.875Z,29.30
2017-10-23T11:50:20.574Z,29.30
2017-10-23T11:52:51.746Z,29.20
2017-10-23T11:55:22.205Z,29.20
2017-10-23T11:57:52.603Z,29.10
2017-10-23T12:00:23.064Z,29.00
2017-10-23T12:02:53.833Z,29.00
2017-10-23T12:05:24.412Z,29.00
2017-10-23T12:07:54.865Z,29.00
2017-10-23T12:10:25.351Z,28.90
2017-10-23T12:12:55.820Z,28.80
2017-10-23T12:15:26.765Z,28.80
2017-10-23T12:17:57.232Z,28.80
2017-10-23T12:20:28.103Z,28.80
2017-10-23T12:22:58.435Z,28.70
2017-10-23T12:25:28.943Z,28.70
2017-10-23T12:28:00.538Z,28.70
2017-10-23T12:30:31.787Z,28.70
2017-10-23T12:33:04.261Z,28.60
2017-10-23T12:35:35.531Z,28.60
2017-10-23T12:38:06.989Z,28.60
2017-10-23T12:40:38.409Z,28.60
2017-10-23T12:43:09.580Z,28.60
2017-10-23T12:45:39.928Z,28.50
2017-10-23T12:48:10.365Z,28.60
2017-10-23T12:50:41.349Z,28.60
2017-10-23T12:53:12.545Z,28.60
2017-10-23T12:55:42.954Z,28.50
2017-10-23T12:58:13.425Z,28.60
2017-10-23T13:00:43.897Z,28.50
2017-10-23T13:03:14.574Z,28.50
2017-10-23T13:05:44.998Z,28.40
2017-10-23T13:08:15.827Z,28.40
2017-10-23T13:10:46.269Z,28.40
2017-10-23T13:13:16.697Z,28.40
2017-10-23T13:15:47.070Z,28.30
2017-10-23T13:18:17.474Z,28.30
2017-10-23T13:20:49.134Z,28.20
2017-10-23T13:23:19.625Z,28.20
2017-10-23T13:25:50.124Z,28.20
2017-10-23T13:28:20.566Z,28.20
2017-10-23T13:30:51.759Z,28.10
2017-10-23T13:33:23.355Z,28.10
2017-10-23T13:35:53.839Z,28.10
2017-10-23T13:38:25.566Z,28.00
2017-10-23T13:40:56.029Z,28.00
2017-10-23T13:43:27.244Z,28.00
2017-10-23T13:45:57.686Z,28.00
2017-10-23T13:48:28.892Z,28.00
2017-10-23T13:50:59.874Z,28.00
2017-10-23T13:53:31.253Z,27.90
2017-10-23T13:56:01.829Z,27.90
2017-10-23T13:58:32.189Z,27.90
2017-10-23T14:01:03.432Z,27.90
2017-10-23T14:03:34.903Z,27.90
2017-10-23T14:06:05.398Z,27.90
2017-10-23T14:08:36.100Z,27.90
2017-10-23T14:11:06.554Z,27.90
2017-10-23T14:13:37.044Z,27.90
2017-10-23T14:16:07.544Z,27.90
2017-10-23T14:18:37.971Z,27.80
2017-10-23T14:21:09.579Z,27.80
2017-10-23T14:23:40.027Z,27.80
2017-10-23T14:26:11.333Z,27.70
2017-10-23T14:28:41.843Z,27.70
2017-10-23T14:31:12.879Z,27.70
2017-10-23T14:33:43.738Z,27.60
2017-10-23T14:36:14.235Z,27.60
2017-10-23T14:38:44.987Z,27.60
2017-10-23T14:41:15.685Z,27.60
2017-10-23T14:43:47.249Z,27.60
2017-10-23T14:46:17.996Z,27.60
2017-10-23T14:48:48.713Z,27.50
2017-10-23T14:51:19.776Z,27.50
2017-10-23T14:53:50.410Z,27.50
2017-10-23T14:56:21.434Z,27.50
2017-10-23T14:58:51.922Z,27.50
2017-10-23T15:01:22.438Z,27.50
2017-10-23T15:03:52.902Z,27.40
2017-10-23T15:06:24.147Z,27.40
2017-10-23T15:08:55.766Z,27.40
2017-10-23T15:11:26.218Z,27.40
2017-10-23T15:13:57.389Z,27.40
2017-10-23T15:16:28.050Z,27.40
2017-10-23T15:18:58.525Z,27.40
2017-10-23T15:21:31.421Z,27.40
2017-10-23T15:24:02.716Z,27.40
2017-10-23T15:26:33.215Z,27.40
2017-10-23T15:29:03.685Z,27.40
2017-10-23T15:31:34.869Z,27.50
2017-10-23T15:34:07.177Z,27.40
2017-10-23T15:36:38.699Z,27.40
2017-10-23T15:39:09.560Z,27.50
2017-10-23T15:41:39.979Z,27.40
2017-10-23T15:44:10.456Z,27.40
2017-10-23T15:46:40.955Z,27.20
2017-10-23T15:49:11.580Z,27.20
2017-10-23T15:51:42.758Z,27.20
2017-10-23T15:54:13.250Z,27.20
2017-10-23T15:56:43.918Z,27.20
2017-10-23T15:59:14.315Z,27.20
2017-10-23T16:01:44.842Z,27.20
2017-10-23T16:04:15.321Z,27.20
2017-10-23T16:06:46.471Z,27.20
2017-10-23T16:09:18.080Z,27.20
2017-10-23T16:11:48.530Z,27.20
2017-10-23T16:14:18.885Z,27.20
2017-10-23T16:16:50.122Z,27.20
2017-10-23T16:19:21.363Z,27.20
2017-10-23T16:21:52.922Z,27.20
2017-10-23T16:24:24.158Z,27.20
2017-10-23T16:26:55.761Z,27.20
2017-10-23T16:29:26.065Z,27.20
2017-10-23T16:31:56.469Z,27.20
2017-10-23T16:34:27.643Z,27.20
2017-10-23T16:36:58.033Z,27.20
2017-10-23T16:39:29.691Z,27.20
2017-10-23T16:42:00.960Z,27.20
2017-10-23T16:44:31.468Z,27.20
2017-10-23T16:47:02.714Z,27.20
2017-10-23T16:49:33.939Z,27.20
2017-10-23T16:52:04.757Z,27.20
2017-10-23T16:54:35.201Z,27.20
2017-10-23T16:57:06.044Z,27.20
2017-10-23T16:59:37.250Z,27.10
2017-10-23T17:02:07.618Z,27.10
2017-10-23T17:04:38.825Z,27.00
2017-10-23T17:07:09.276Z,27.00
2017-10-23T17:09:40.161Z,27.00
2017-10-23T17:12:16.740Z,27.00
2017-10-23T17:14:47.185Z,27.10
2017-10-23T17:17:17.691Z,27.10
2017-10-23T17:19:48.087Z,27.10
2017-10-23T17:22:20.002Z,27.10
2017-10-23T17:24:50.514Z,27.10
2017-10-23T17:27:21.173Z,27.20
2017-10-23T17:29:51.629Z,27.20
2017-10-23T17:32:22.887Z,27.20
2017-10-23T17:34:54.081Z,27.20
2017-10-23T17:37:24.543Z,27.20
2017-10-23T17:39:56.292Z,27.10
2017-10-23T17:42:26.853Z,27.20
2017-10-23T17:44:57.304Z,27.10
2017-10-23T17:47:27.803Z,27.10
2017-10-23T17:49:59.012Z,27.10
2017-10-23T17:52:29.749Z,27.10
2017-10-23T17:55:00.156Z,27.10
2017-10-23T17:57:31.114Z,27.10
2017-10-23T18:00:01.640Z,27.00
2017-10-23T18:02:32.826Z,27.00
2017-10-23T18:05:04.169Z,27.00
2017-10-23T18:07:34.648Z,27.00
2017-10-23T18:10:05.465Z,27.00
2017-10-23T18:12:35.961Z,27.00
2017-10-23T18:15:07.145Z,27.00
2017-10-23T18:17:37.548Z,27.00
2017-10-23T18:20:07.971Z,27.00
2017-10-23T18:22:40.097Z,26.90
2017-10-23T18:25:10.468Z,27.00
2017-10-23T18:27:41.391Z,26.90
2017-10-23T18:30:11.870Z,26.90
2017-10-23T18:32:42.338Z,26.90
2017-10-23T18:35:13.504Z,26.90
2017-10-23T18:37:43.959Z,26.90
2017-10-23T18:40:15.794Z,26.80
2017-10-23T18:42:46.240Z,26.80
2017-10-23T18:45:16.743Z,26.90
2017-10-23T18:47:47.191Z,26.90
2017-10-23T18:50:17.639Z,26.80
2017-10-23T18:52:48.704Z,26.80
2017-10-23T18:55:19.224Z,26.80
2017-10-23T18:57:50.177Z,26.90
2017-10-23T19:00:22.243Z,26.90
2017-10-23T19:02:53.700Z,26.90
2017-10-23T19:05:30.323Z,26.80
2017-10-23T19:08:00.779Z,26.80
2017-10-23T19:10:32.347Z,26.90
2017-10-23T19:13:03.649Z,26.80
2017-10-23T19:15:34.129Z,26.80
2017-10-23T19:18:05.438Z,26.80
2017-10-23T19:20:35.905Z,26.80
2017-10-23T19:23:07.227Z,26.80
2017-10-23T19:25:37.705Z,26.80
2017-10-23T19:28:08.362Z,26.80
2017-10-23T19:30:38.807Z,26.80
2017-10-23T19:33:09.299Z,26.80
2017-10-23T19:35:39.768Z,26.80
2017-10-23T19:38:10.129Z,26.80
2017-10-23T19:40:41.016Z,26.80
2017-10-23T19:43:11.477Z,26.80
2017-10-23T19:45:42.903Z,26.80
2017-10-23T19:48:13.908Z,26.80
2017-10-23T19:50:44.346Z,26.80
2017-10-23T19:53:14.817Z,26.70
2017-10-23T19:55:46.051Z,26.70
2017-10-23T19:58:16.843Z,26.70
2017-10-23T20:00:47.328Z,26.70
2017-10-23T20:03:18.484Z,26.70
2017-10-23T20:05:49.703Z,26.70
2017-10-23T20:08:20.092Z,26.70
2017-10-23T20:10:50.965Z,26.70
2017-10-23T20:13:21.451Z,26.70
2017-10-23T20:15:53.788Z,26.70
2017-10-23T20:18:25.023Z,26.70
2017-10-23T20:20:56.304Z,26.70
2017-10-23T20:23:26.886Z,26.70
2017-10-23T20:25:57.337Z,26.70
2017-10-23T20:28:28.969Z,26.70
2017-10-23T20:30:59.388Z,26.60
2017-10-23T20:33:29.861Z,26.70
2017-10-23T20:36:00.296Z,26.70
2017-10-23T20:38:30.700Z,26.70
2017-10-23T20:41:01.937Z,26.80
2017-10-23T20:43:33.094Z,26.80
2017-10-23T20:46:04.691Z,26.70
2017-10-23T20:48:35.144Z,26.70
2017-10-23T20:51:06.347Z,26.70
2017-10-23T20:53:36.756Z,26.70
2017-10-23T20:56:07.185Z,26.70
2017-10-23T20:58:37.620Z,26.70
2017-10-23T21:01:08.074Z,26.80
2017-10-23T21:03:38.538Z,26.80
2017-10-23T21:06:09.783Z,26.70
2017-10-23T21:08:40.946Z,26.70
2017-10-23T21:11:11.708Z,26.70
2017-10-23T21:13:42.233Z,26.70
2017-10-23T21:16:13.065Z,26.70
2017-10-23T21:18:43.517Z,26.70
2017-10-23T21:21:14.012Z,26.60
2017-10-23T21:23:44.484Z,26.60
2017-10-23T21:26:14.912Z,26.60
2017-10-23T21:28:45.774Z,26.60
2017-10-23T21:31:17.457Z,26.60
2017-10-23T21:33:47.923Z,26.60
2017-10-23T21:36:18.304Z,26.60
2017-10-23T21:38:48.792Z,26.60
2017-10-23T21:41:19.249Z,26.70
2017-10-23T21:43:50.501Z,26.60
2017-10-23T21:46:31.749Z,26.60
2017-10-23T21:49:02.232Z,26.60
2017-10-23T21:51:32.698Z,26.60
2017-10-23T21:54:03.157Z,26.50
2017-10-23T21:56:34.423Z,26.50
2017-10-23T21:59:06.065Z,26.50
2017-10-23T22:01:36.817Z,26.50
2017-10-23T22:04:07.255Z,26.50
2017-10-23T22:06:37.688Z,26.50
2017-10-23T22:09:08.147Z,26.50
2017-10-23T22:11:39.044Z,26.60
2017-10-23T22:14:10.522Z,26.50
2017-10-23T22:16:41.258Z,26.60
2017-10-23T22:19:11.719Z,26.60
2017-10-23T22:21:42.997Z,26.60
2017-10-23T22:24:13.396Z,26.60
2017-10-23T22:26:44.648Z,26.60
2017-10-23T22:29:15.520Z,26.70
2017-10-23T22:31:45.938Z,26.60
2017-10-23T22:34:16.337Z,26.60
2017-10-23T22:36:46.785Z,26.60
2017-10-23T22:39:17.234Z,26.50
2017-10-23T22:41:48.890Z,26.50
2017-10-23T22:44:19.371Z,26.50
2017-10-23T22:46:50.901Z,26.50
2017-10-23T22:49:22.092Z,26.50
2017-10-23T22:51:53.413Z,26.50
2017-10-23T22:54:24.608Z,26.50
2017-10-23T22:56:55.033Z,26.50
2017-10-23T22:59:26.112Z,26.50
2017-10-23T23:01:57.333Z,26.50
2017-10-23T23:04:27.761Z,26.50
2017-10-23T23:06:58.259Z,26.50
2017-10-23T23:09:28.758Z,26.50
2017-10-23T23:12:00.391Z,26.40
2017-10-23T23:14:30.857Z,26.40
2017-10-23T23:17:01.634Z,26.40
2017-10-23T23:19:32.934Z,26.40
2017-10-23T23:22:03.413Z,26.40
2017-10-23T23:24:34.048Z,26.40
2017-10-23T23:27:04.449Z,26.40
2017-10-23T23:29:36.218Z,26.50
2017-10-23T23:32:06.686Z,26.50
2017-10-23T23:34:37.898Z,26.50
2017-10-23T23:37:08.408Z,26.50
2017-10-23T23:39:38.791Z,26.60
2017-10-23T23:42:09.965Z,26.70
2017-10-23T23:44:40.390Z,26.70
2017-10-23T23:47:11.335Z,26.80
2017-10-23T23:49:41.777Z,26.80
2017-10-23T23:52:12.239Z,26.90
2017-10-23T23:54:43.426Z,27.10
2017-10-23T23:57:13.870Z,27.00
2017-10-23T23:59:44.709Z,27.10
